createdAt,value
2023-05-02T00:06:31.760Z,12.20
2023-05-02T00:16:33.454Z,12.00
2023-05-02T00:26:35.102Z,12.00
2023-05-02T00:36:36.744Z,11.80
2023-05-02T00:46:38.488Z,11.80
2023-05-02T00:56:40.660Z,11.80
2023-05-02T01:06:42.282Z,11.60
2023-05-02T01:16:47.069Z,11.60
2023-05-02T01:27:02.673Z,11.60
2023-05-02T01:37:06.811Z,11.60
2023-05-02T01:47:10.312Z,11.60
2023-05-02T01:57:13.167Z,11.60
2023-05-02T02:07:15.191Z,11.70
2023-05-02T02:17:40.479Z,11.70
2023-05-02T02:27:42.984Z,11.60
2023-05-02T02:37:54.891Z,11.70
2023-05-02T02:48:19.073Z,11.80
2023-05-02T02:58:52.259Z,11.90
2023-05-02T03:08:53.865Z,12.10
2023-05-02T03:18:55.493Z,12.10
2023-05-02T03:28:57.387Z,12.20
2023-05-02T03:38:59.006Z,12.20
2023-05-02T03:49:00.626Z,12.20
2023-05-02T03:59:02.400Z,12.20
2023-05-02T04:09:04.086Z,12.30
2023-05-02T04:19:06.314Z,12.30
2023-05-02T04:29:08.013Z,12.50
2023-05-02T04:39:09.842Z,12.50
2023-05-02T04:49:12.110Z,12.70
2023-05-02T04:59:13.801Z,12.70
2023-05-02T05:09:15.816Z,12.70
2023-05-02T05:19:17.477Z,12.80
2023-05-02T05:29:19.290Z,12.80
2023-05-02T05:39:20.962Z,12.80
2023-05-02T05:49:24.219Z,13.00
2023-05-02T05:59:25.859Z,13.00
2023-05-02T06:09:27.606Z,13.00
2023-05-02T06:19:29.467Z,13.00
2023-05-02T06:29:31.487Z,13.00
2023-05-02T06:39:33.601Z,13.10
2023-05-02T06:49:35.412Z,13.40
2023-05-02T06:59:37.532Z,13.60
2023-05-02T07:09:39.369Z,13.90
2023-05-02T07:19:45.463Z,14.10
2023-05-02T07:29:48.528Z,14.10
2023-05-02T07:39:50.267Z,14.00
2023-05-02T07:49:52.655Z,14.10
2023-05-02T07:59:57.080Z,14.10
2023-05-02T08:09:59.176Z,14.30
2023-05-02T08:20:04.399Z,14.80
2023-05-02T08:30:07.150Z,15.30
2023-05-02T08:40:12.657Z,15.80
2023-05-02T09:00:18.861Z,15.90
2023-05-02T09:10:21.896Z,17.00
2023-05-02T09:20:23.644Z,17.10
2023-05-02T09:30:26.500Z,17.10
2023-05-02T09:40:30.117Z,17.30
2023-05-02T09:50:38.559Z,17.60
2023-05-02T10:00:42.864Z,17.90
2023-05-02T10:10:57.008Z,17.70
2023-05-02T10:21:01.603Z,17.70
2023-05-02T10:31:05.151Z,17.30
2023-05-02T10:41:14.599Z,17.60
2023-05-02T10:51:31.391Z,17.70
2023-05-02T11:01:37.592Z,17.70
2023-05-02T11:11:43.528Z,17.90
2023-05-02T11:21:45.454Z,17.70
2023-05-02T11:31:55.002Z,17.80
2023-05-02T11:41:56.694Z,18.60
2023-05-02T11:51:59.333Z,18.60
2023-05-02T12:02:00.960Z,18.50
2023-05-02T12:12:03.440Z,18.40
2023-05-02T12:22:06.191Z,18.40
2023-05-02T12:32:08.349Z,18.60
2023-05-02T13:02:15.514Z,19.10
2023-05-02T13:12:18.147Z,19.30
2023-05-02T14:22:33.411Z,19.60
2023-05-02T14:32:35.327Z,20.90
2023-05-02T14:42:37.221Z,20.00
2023-05-02T14:52:39.069Z,19.80
2023-05-02T15:02:41.320Z,19.60
2023-05-02T15:12:43.261Z,18.90
2023-05-02T15:22:44.957Z,19.10
2023-05-02T15:32:46.664Z,19.90
2023-05-02T15:42:48.773Z,21.30
2023-05-02T15:52:50.946Z,24.50
2023-05-02T16:02:52.562Z,24.40
2023-05-02T16:12:54.561Z,27.10
2023-05-02T16:22:56.318Z,26.40
2023-05-02T16:32:57.942Z,24.50
2023-05-02T16:53:01.766Z,23.60
2023-05-02T17:03:05.172Z,23.80
2023-05-02T17:13:07.761Z,23.80
2023-05-02T18:13:20.161Z,17.30
2023-05-02T18:23:21.789Z,17.20
2023-05-02T18:33:23.450Z,16.60
2023-05-02T18:43:25.070Z,16.20
2023-05-02T18:53:26.736Z,16.40
2023-05-02T19:03:28.611Z,15.60
2023-05-02T19:13:31.045Z,15.50
2023-05-02T19:23:32.810Z,15.40
2023-05-02T19:33:34.597Z,15.20
2023-05-02T19:43:36.535Z,14.90
2023-05-02T19:53:38.356Z,14.70
2023-05-02T20:03:40.035Z,14.60
2023-05-02T20:13:41.742Z,14.20
2023-05-02T20:23:44.908Z,14.20
2023-05-02T20:33:46.573Z,14.00
2023-05-02T20:43:48.202Z,13.80
2023-05-02T20:53:49.885Z,13.60
2023-05-02T21:03:51.520Z,13.40
2023-05-02T21:13:53.220Z,13.30
2023-05-02T21:23:54.863Z,13.10
2023-05-02T21:33:56.497Z,13.00
2023-05-02T21:43:58.141Z,13.00
2023-05-02T21:53:59.941Z,12.90
2023-05-02T22:04:01.764Z,12.80
2023-05-02T22:14:03.385Z,12.80
2023-05-02T22:24:05.420Z,12.40
2023-05-02T22:34:07.093Z,12.40
2023-05-02T22:44:09.264Z,12.30
2023-05-02T22:54:10.989Z,11.90
2023-05-02T23:04:12.591Z,11.80
2023-05-02T23:14:15.019Z,11.80
2023-05-02T23:24:16.817Z,11.70
2023-05-02T23:34:18.561Z,11.60
2023-05-02T23:44:20.228Z,11.40
2023-05-02T23:54:21.976Z,11.30
